Neptune Antlia — S6BE — position and weather

sailwx.info

Track history (hours):
 
Tides and Currents Weather Stations Pressure Air Temp Water Temp Dewpoint Dewpoint Depression Visibility Wind Speed Wind Dir Waves Ship Positions

Neptune Antlia

Last reported at 2017-Jan-17 08:33 UTC. Time now 2017-Jan-18 18:04 UTC.
Position N 24°29' E 118°03'.

Type: Cargo ship. MMSI: 563737000.

Date/timePositionNaut miles runAvg speedWind from/ knotsBaromVisibWave heightAir tempDewpointWater temp
2017-Jan-17 08:33N 24°29' E 118°03'1010.3
2017-Jan-17 07:33N 24°20' E 118°10'130 6.5
2017-Jan-16 11:31N 22°52' E 119°54'1111.5
2017-Jan-16 10:33N 22°44' E 120°03'1211.6
2017-Jan-16 09:33N 22°36' E 120°12'6 6.2
2017-Jan-16 08:33N 22°34' E 120°18'0 0.2
2017-Jan-16 07:32N 22°34' E 120°18'0 0.0
2017-Jan-16 06:32N 22°34' E 120°18'0 0.0
2017-Jan-16 05:32N 22°34' E 120°18'0 0.0
2017-Jan-16 04:31N 22°34' E 120°18'0 0.0
2017-Jan-16 03:31N 22°34' E 120°18'0 0.0
2017-Jan-16 02:31N 22°34' E 120°18'0 0.0
2017-Jan-16 01:31N 22°34' E 120°18'0 0.0
2017-Jan-16 00:31N 22°34' E 120°18'0 0.0
2017-Jan-15 23:31N 22°34' E 120°18'0 0.0
2017-Jan-15 22:31N 22°34' E 120°18'0 0.0
2017-Jan-15 21:31N 22°34' E 120°18'0 0.0
2017-Jan-15 20:31N 22°34' E 120°18'0 0.0
2017-Jan-15 19:31N 22°34' E 120°18'0 0.0
2017-Jan-15 18:31N 22°34' E 120°18'0 0.0
2017-Jan-15 17:31N 22°34' E 120°18'0 0.0
2017-Jan-15 16:31N 22°34' E 120°18'0 0.0
2017-Jan-15 15:31N 22°34' E 120°18'0 0.0
2017-Jan-15 14:31N 22°34' E 120°18'0 0.0
2017-Jan-15 13:31N 22°34' E 120°18'0 0.0
2017-Jan-15 12:25N 22°34' E 120°18'1 1.6
2017-Jan-15 11:33N 22°33' E 120°18'3 3.1
2017-Jan-15 10:33N 22°31' E 120°16'0 0.1
2017-Jan-15 09:33N 22°31' E 120°16'0 0.1
2017-Jan-15 08:33N 22°31' E 120°16'0 0.0
2017-Jan-15 07:33N 22°31' E 120°16'0 0.0
2017-Jan-15 06:26N 22°31' E 120°16'0 0.0
2017-Jan-15 05:32N 22°31' E 120°16'0 0.0
2017-Jan-15 04:32N 22°31' E 120°16'0 0.0
2017-Jan-15 03:32N 22°31' E 120°16'0 0.1
2017-Jan-15 02:32N 22°31' E 120°16'0 0.0
2017-Jan-15 01:32N 22°31' E 120°16'0 0.1
2017-Jan-15 00:32N 22°31' E 120°16'0 0.1
2017-Jan-14 23:32N 22°31' E 120°15'0 0.0
2017-Jan-14 22:32N 22°31' E 120°15'0 0.1
2017-Jan-14 21:32N 22°31' E 120°15'0 0.0
2017-Jan-14 20:32N 22°31' E 120°15'0 0.0
2017-Jan-14 19:32N 22°31' E 120°15'0 0.1
2017-Jan-14 18:26N 22°31' E 120°16'0 0.0
2017-Jan-14 17:26N 22°31' E 120°16'0 0.1
2017-Jan-14 16:32N 22°31' E 120°16'0 0.0
2017-Jan-14 15:32N 22°31' E 120°16'0 0.0
2017-Jan-14 14:32N 22°31' E 120°16'0 0.2
2017-Jan-14 13:32N 22°31' E 120°15'0 0.1
2017-Jan-14 12:32N 22°31' E 120°16'0 0.0
2017-Jan-14 11:32N 22°31' E 120°16'0 0.1
2017-Jan-14 10:32N 22°31' E 120°16'0 0.0
2017-Jan-14 09:32N 22°31' E 120°16'0 0.0
2017-Jan-14 08:32N 22°31' E 120°16'0 0.0
2017-Jan-14 07:32N 22°31' E 120°16'0 0.1
2017-Jan-14 06:32N 22°31' E 120°16'0 0.0
2017-Jan-14 05:32N 22°31' E 120°16'0 0.0
2017-Jan-14 04:32N 22°31' E 120°16'0 0.0
2017-Jan-14 03:32N 22°31' E 120°16'0 0.1
2017-Jan-13 23:32N 22°31' E 120°16'0 0.1
2017-Jan-13 22:32N 22°31' E 120°16'0 0.0
2017-Jan-13 21:32N 22°31' E 120°16'0 0.1
2017-Jan-13 20:32N 22°31' E 120°16'0 0.1
2017-Jan-13 19:31N 22°31' E 120°16'0 0.0
2017-Jan-13 18:31N 22°31' E 120°16'0 0.0
2017-Jan-13 17:31N 22°31' E 120°16'0 0.2
2017-Jan-13 16:31N 22°31' E 120°15'0 0.2
2017-Jan-13 15:31N 22°31' E 120°16'0 0.0
2017-Jan-13 14:31N 22°31' E 120°16'0 0.0
2017-Jan-13 13:31N 22°31' E 120°16'0 0.1
2017-Jan-13 12:31N 22°31' E 120°16'0 0.1
2017-Jan-13 11:31N 22°31' E 120°16'0 0.1
2017-Jan-13 10:31N 22°31' E 120°16'0 0.0
2017-Jan-13 09:25N 22°31' E 120°16'0 0.0
2017-Jan-13 08:31N 22°31' E 120°16'0 0.0
2017-Jan-13 07:31N 22°31' E 120°16'0 0.0
2017-Jan-13 06:31N 22°31' E 120°16'0 0.1
2017-Jan-13 05:25N 22°31' E 120°16'0 0.1
2017-Jan-13 04:31N 22°31' E 120°16'0 0.1
2017-Jan-13 03:31N 22°31' E 120°16'0 0.0
2017-Jan-13 02:31N 22°31' E 120°16'0 0.0
2017-Jan-13 01:25N 22°31' E 120°16'0 0.1
2017-Jan-13 00:31N 22°31' E 120°16'0 0.0
2017-Jan-12 23:25N 22°31' E 120°16'0 0.0
2017-Jan-12 22:31N 22°31' E 120°16'0 0.1
2017-Jan-12 21:31N 22°31' E 120°15'0 0.0
2017-Jan-12 20:31N 22°31' E 120°15'0 0.2
2017-Jan-12 19:25N 22°31' E 120°16'0 0.1
2017-Jan-12 18:31N 22°31' E 120°16'0 0.1
2017-Jan-12 17:31N 22°31' E 120°16'0 0.0
2017-Jan-12 16:31N 22°31' E 120°16'0 0.2
2017-Jan-12 15:31N 22°31' E 120°16'0 0.1
2017-Jan-12 14:25N 22°31' E 120°16'0 0.1
2017-Jan-12 13:31N 22°31' E 120°16'0 0.0
2017-Jan-12 12:19N 22°31' E 120°16'0 0.0
2017-Jan-12 11:31N 22°31' E 120°16'0 0.0
2017-Jan-12 10:31N 22°31' E 120°16'0 0.0
2017-Jan-12 09:31N 22°31' E 120°16'0 0.1
2017-Jan-12 08:30N 22°31' E 120°16'5 5.5
2017-Jan-12 07:33N 22°26' E 120°13'1212.1
2017-Jan-12 06:33N 22°14' E 120°11'  
Track history (hours):
 
Tides and Currents Weather Stations Pressure Air Temp Water Temp Dewpoint Dewpoint Depression Visibility Wind Speed Wind Dir Waves Ship Positions

Neptune Antlia

Last reported at 2017-Jan-17 08:33 UTC. Time now 2017-Jan-18 18:04 UTC.
Position N 24°29' E 118°03'.

Type: Cargo ship. MMSI: 563737000.

Date/timePositionNaut miles runAvg speedWind from/ knotsBaromVisibWave heightAir tempDewpointWater temp
2017-Jan-17 08:33N 24°29' E 118°03'1010.3
2017-Jan-17 07:33N 24°20' E 118°10'130 6.5
2017-Jan-16 11:31N 22°52' E 119°54'1111.5
2017-Jan-16 10:33N 22°44' E 120°03'1211.6
2017-Jan-16 09:33N 22°36' E 120°12'6 6.2
2017-Jan-16 08:33N 22°34' E 120°18'0 0.2
2017-Jan-16 07:32N 22°34' E 120°18'0 0.0
2017-Jan-16 06:32N 22°34' E 120°18'0 0.0
2017-Jan-16 05:32N 22°34' E 120°18'0 0.0
2017-Jan-16 04:31N 22°34' E 120°18'0 0.0
2017-Jan-16 03:31N 22°34' E 120°18'0 0.0
2017-Jan-16 02:31N 22°34' E 120°18'0 0.0
2017-Jan-16 01:31N 22°34' E 120°18'0 0.0
2017-Jan-16 00:31N 22°34' E 120°18'0 0.0
2017-Jan-15 23:31N 22°34' E 120°18'0 0.0
2017-Jan-15 22:31N 22°34' E 120°18'0 0.0
2017-Jan-15 21:31N 22°34' E 120°18'0 0.0
2017-Jan-15 20:31N 22°34' E 120°18'0 0.0
2017-Jan-15 19:31N 22°34' E 120°18'0 0.0
2017-Jan-15 18:31N 22°34' E 120°18'0 0.0
2017-Jan-15 17:31N 22°34' E 120°18'0 0.0
2017-Jan-15 16:31N 22°34' E 120°18'0 0.0
2017-Jan-15 15:31N 22°34' E 120°18'0 0.0
2017-Jan-15 14:31N 22°34' E 120°18'0 0.0
2017-Jan-15 13:31N 22°34' E 120°18'0 0.0
2017-Jan-15 12:25N 22°34' E 120°18'1 1.6
2017-Jan-15 11:33N 22°33' E 120°18'3 3.1
2017-Jan-15 10:33N 22°31' E 120°16'0 0.1
2017-Jan-15 09:33N 22°31' E 120°16'0 0.1
2017-Jan-15 08:33N 22°31' E 120°16'0 0.0
2017-Jan-15 07:33N 22°31' E 120°16'0 0.0
2017-Jan-15 06:26N 22°31' E 120°16'0 0.0
2017-Jan-15 05:32N 22°31' E 120°16'0 0.0
2017-Jan-15 04:32N 22°31' E 120°16'0 0.0
2017-Jan-15 03:32N 22°31' E 120°16'0 0.1
2017-Jan-15 02:32N 22°31' E 120°16'0 0.0
2017-Jan-15 01:32N 22°31' E 120°16'0 0.1
2017-Jan-15 00:32N 22°31' E 120°16'0 0.1
2017-Jan-14 23:32N 22°31' E 120°15'0 0.0
2017-Jan-14 22:32N 22°31' E 120°15'0 0.1
2017-Jan-14 21:32N 22°31' E 120°15'0 0.0
2017-Jan-14 20:32N 22°31' E 120°15'0 0.0
2017-Jan-14 19:32N 22°31' E 120°15'0 0.1
2017-Jan-14 18:26N 22°31' E 120°16'0 0.0
2017-Jan-14 17:26N 22°31' E 120°16'0 0.1
2017-Jan-14 16:32N 22°31' E 120°16'0 0.0
2017-Jan-14 15:32N 22°31' E 120°16'0 0.0
2017-Jan-14 14:32N 22°31' E 120°16'0 0.2
2017-Jan-14 13:32N 22°31' E 120°15'0 0.1
2017-Jan-14 12:32N 22°31' E 120°16'0 0.0
2017-Jan-14 11:32N 22°31' E 120°16'0 0.1
2017-Jan-14 10:32N 22°31' E 120°16'0 0.0
2017-Jan-14 09:32N 22°31' E 120°16'0 0.0
2017-Jan-14 08:32N 22°31' E 120°16'0 0.0
2017-Jan-14 07:32N 22°31' E 120°16'0 0.1
2017-Jan-14 06:32N 22°31' E 120°16'0 0.0
2017-Jan-14 05:32N 22°31' E 120°16'0 0.0
2017-Jan-14 04:32N 22°31' E 120°16'0 0.0
2017-Jan-14 03:32N 22°31' E 120°16'0 0.1
2017-Jan-13 23:32N 22°31' E 120°16'0 0.1
2017-Jan-13 22:32N 22°31' E 120°16'0 0.0
2017-Jan-13 21:32N 22°31' E 120°16'0 0.1
2017-Jan-13 20:32N 22°31' E 120°16'0 0.1
2017-Jan-13 19:31N 22°31' E 120°16'0 0.0
2017-Jan-13 18:31N 22°31' E 120°16'0 0.0
2017-Jan-13 17:31N 22°31' E 120°16'0 0.2
2017-Jan-13 16:31N 22°31' E 120°15'0 0.2
2017-Jan-13 15:31N 22°31' E 120°16'0 0.0
2017-Jan-13 14:31N 22°31' E 120°16'0 0.0
2017-Jan-13 13:31N 22°31' E 120°16'0 0.1
2017-Jan-13 12:31N 22°31' E 120°16'0 0.1
2017-Jan-13 11:31N 22°31' E 120°16'0 0.1
2017-Jan-13 10:31N 22°31' E 120°16'0 0.0
2017-Jan-13 09:25N 22°31' E 120°16'0 0.0
2017-Jan-13 08:31N 22°31' E 120°16'0 0.0
2017-Jan-13 07:31N 22°31' E 120°16'0 0.0
2017-Jan-13 06:31N 22°31' E 120°16'0 0.1
2017-Jan-13 05:25N 22°31' E 120°16'0 0.1
2017-Jan-13 04:31N 22°31' E 120°16'0 0.1
2017-Jan-13 03:31N 22°31' E 120°16'0 0.0
2017-Jan-13 02:31N 22°31' E 120°16'0 0.0
2017-Jan-13 01:25N 22°31' E 120°16'0 0.1
2017-Jan-13 00:31N 22°31' E 120°16'0 0.0
2017-Jan-12 23:25N 22°31' E 120°16'0 0.0
2017-Jan-12 22:31N 22°31' E 120°16'0 0.1
2017-Jan-12 21:31N 22°31' E 120°15'0 0.0
2017-Jan-12 20:31N 22°31' E 120°15'0 0.2
2017-Jan-12 19:25N 22°31' E 120°16'0 0.1
2017-Jan-12 18:31N 22°31' E 120°16'0 0.1
2017-Jan-12 17:31N 22°31' E 120°16'0 0.0
2017-Jan-12 16:31N 22°31' E 120°16'0 0.2
2017-Jan-12 15:31N 22°31' E 120°16'0 0.1
2017-Jan-12 14:25N 22°31' E 120°16'0 0.1
2017-Jan-12 13:31N 22°31' E 120°16'0 0.0
2017-Jan-12 12:19N 22°31' E 120°16'0 0.0
2017-Jan-12 11:31N 22°31' E 120°16'0 0.0
2017-Jan-12 10:31N 22°31' E 120°16'0 0.0
2017-Jan-12 09:31N 22°31' E 120°16'0 0.1
2017-Jan-12 08:30N 22°31' E 120°16'5 5.5
2017-Jan-12 07:33N 22°26' E 120°13'1212.1
2017-Jan-12 06:33N 22°14' E 120°11'  

Dump ship's entire track history